Time;durP1;ratioP1;P1;durP2;ratioP2;P2;SDS_P1;SDS_P2;PMS_P1;PMS_P2;Temp;Humidity;BMP_temperature;BMP_pressure;BME280_temperature;BME280_humidity;BME280_pressure;Samples;Min_cycle;Max_cycle;Signal;HPM_P1;HPM_P2
2021/07/01 00:00:44;;;;;;;11.93;8.10;;;;;;;21.11;70.99;98952.33;1723840;82;21491;-60
2021/07/01 00:03:10;;;;;;;9.70;8.68;;;;;;;21.17;70.69;98949.50;1726667;83;21035;-61
2021/07/01 00:05:37;;;;;;;11.03;9.08;;;;;;;21.15;70.48;98939.34;1729438;83;20987;-64
2021/07/01 00:08:04;;;;;;;10.75;9.30;;;;;;;21.10;70.86;98945.19;1701978;83;21030;-63
2021/07/01 00:10:31;;;;;;;13.65;8.85;;;;;;;21.05;71.14;98944.03;1700219;84;21554;-63
2021/07/01 00:12:58;;;;;;;11.93;8.65;;;;;;;21.05;71.04;98931.58;1720696;82;21074;-64
2021/07/01 00:15:27;;;;;;;13.20;9.70;;;;;;;21.04;71.04;98921.70;1727644;82;20990;-63
2021/07/01 00:17:54;;;;;;;15.30;10.10;;;;;;;20.98;71.22;98909.28;1706157;83;21031;-64
2021/07/01 00:20:20;;;;;;;11.40;9.73;;;;;;;20.92;71.38;98899.67;1708333;82;20963;-61
2021/07/01 00:22:47;;;;;;;11.68;9.48;;;;;;;20.92;71.38;98901.63;1728903;82;21051;-61
2021/07/01 00:25:14;;;;;;;12.18;10.13;;;;;;;20.98;71.25;98908.48;1729336;82;21051;-61
2021/07/01 00:27:41;;;;;;;10.63;9.63;;;;;;;20.97;71.24;98898.02;1726775;83;21063;-61
2021/07/01 00:30:09;;;;;;;13.80;9.68;;;;;;;20.90;71.57;98886.79;1701476;84;21035;-61
2021/07/01 00:32:36;;;;;;;13.50;9.50;;;;;;;20.88;71.59;98886.91;1658351;84;21018;-61
2021/07/01 00:35:05;;;;;;;11.15;9.88;;;;;;;20.88;71.46;98878.61;1693254;83;21705;-61
2021/07/01 00:37:32;;;;;;;14.13;10.10;;;;;;;20.84;71.39;98866.08;1669903;84;21074;-65
2021/07/01 00:40:08;;;;;;;12.82;10.03;;;;;;;20.74;71.22;98868.02;1696079;84;21048;-66
2021/07/01 00:42:35;;;;;;;15.90;9.70;;;;;;;20.63;71.24;98862.23;1678521;84;21080;-65
2021/07/01 00:45:04;;;;;;;11.63;8.78;;;;;;;20.60;71.18;98875.98;1695444;84;21100;-65
2021/07/01 00:47:32;;;;;;;11.30;9.45;;;;;;;20.56;71.05;98877.27;1695778;84;21041;-65
2021/07/01 00:49:59;;;;;;;11.90;9.85;;;;;;;20.47;71.23;98882.78;1696089;84;20971;-65
2021/07/01 00:52:25;;;;;;;12.37;9.58;;;;;;;20.37;71.63;98897.14;1696003;84;21038;-65
2021/07/01 00:54:54;;;;;;;9.88;8.93;;;;;;;20.30;72.08;98902.69;1677129;85;21060;-65
2021/07/01 00:57:22;;;;;;;10.45;8.95;;;;;;;20.28;72.57;98900.88;1679700;84;21064;-65
2021/07/01 00:59:49;;;;;;;12.85;9.78;;;;;;;20.26;72.95;98895.45;1695586;84;20979;-65
2021/07/01 01:02:16;;;;;;;14.78;10.28;;;;;;;20.20;73.27;98894.90;1698934;83;21582;-66
2021/07/01 01:04:42;;;;;;;15.58;9.95;;;;;;;20.12;73.58;98889.56;1719003;82;20983;-66
2021/07/01 01:07:08;;;;;;;9.98;8.70;;;;;;;20.08;73.75;98885.89;1719924;82;21583;-65
2021/07/01 01:09:35;;;;;;;13.00;9.38;;;;;;;20.12;73.76;98880.66;1714174;82;20995;-65
2021/07/01 01:12:02;;;;;;;12.20;9.85;;;;;;;20.10;73.83;98866.99;1688102;83;21044;-65
2021/07/01 01:14:29;;;;;;;14.30;10.13;;;;;;;20.01;74.15;98872.70;1718325;83;21467;-65
2021/07/01 01:17:00;;;;;;;13.50;10.25;;;;;;;19.95;74.33;98857.52;1714702;81;21091;-65
2021/07/01 01:19:26;;;;;;;13.78;10.50;;;;;;;19.94;74.48;98853.19;1715983;83;21433;-64
2021/07/01 01:21:53;;;;;;;12.20;10.90;;;;;;;19.92;74.77;98849.15;1728908;81;21055;-64
2021/07/01 01:24:19;;;;;;;15.25;11.48;;;;;;;19.84;75.11;98839.30;1725531;83;21493;-65
2021/07/01 01:26:46;;;;;;;13.75;11.22;;;;;;;19.85;75.58;98824.91;1687735;84;21075;-65
2021/07/01 01:33:07;;;;;;;13.28;10.75;;;;;;;19.98;75.94;98802.95;1724438;81;21053;-64
2021/07/01 01:35:34;;;;;;;13.18;11.53;;;;;;;19.92;76.31;98792.53;1715870;83;21059;-64
2021/07/01 01:38:01;;;;;;;12.73;11.22;;;;;;;19.92;76.78;98787.00;1717992;83;21067;-63
2021/07/01 01:40:28;;;;;;;15.28;11.53;;;;;;;19.96;77.20;98781.80;1713913;83;21107;-64
2021/07/01 01:42:56;;;;;;;14.98;12.37;;;;;;;20.02;77.62;98784.51;1701963;83;21082;-65
2021/07/01 01:45:22;;;;;;;16.02;11.70;;;;;;;20.08;77.80;98789.20;1714921;83;21043;-62
2021/07/01 01:47:49;;;;;;;12.70;11.22;;;;;;;20.14;77.72;98790.53;1711775;83;21063;-65
2021/07/01 01:50:21;;;;;;;12.85;10.70;;;;;;;20.16;77.51;98781.28;1704887;83;20988;-63
2021/07/01 01:52:48;;;;;;;13.45;12.05;;;;;;;20.16;77.17;98784.05;1715299;81;21039;-64
2021/07/01 01:55:15;;;;;;;14.15;12.10;;;;;;;20.14;76.92;98791.33;1715482;82;21019;-63
2021/07/01 01:57:44;;;;;;;14.40;11.30;;;;;;;20.08;76.85;98780.34;1716580;83;22043;-63
2021/07/01 02:00:16;;;;;;;13.08;11.25;;;;;;;20.05;76.79;98784.39;1717287;82;20976;-63
2021/07/01 02:02:57;;;;;;;13.22;10.80;;;;;;;20.05;76.63;98788.54;1698931;83;21087;-63
2021/07/01 02:05:36;;;;;;;13.80;10.00;;;;;;;20.07;76.56;98799.45;1722899;81;21126;-63
2021/07/01 02:08:08;;;;;;;13.10;10.98;;;;;;;20.08;76.52;98791.97;1714269;82;21126;-63
2021/07/01 02:10:36;;;;;;;12.43;11.10;;;;;;;20.11;76.43;98787.10;1708094;83;21031;-63
2021/07/01 02:13:09;;;;;;;14.87;10.95;;;;;;;20.06;76.37;98784.02;1713636;83;21581;-63
2021/07/01 02:15:33;;;;;;;16.40;10.72;;;;;;;20.04;76.26;98780.83;1695482;83;21645;-63
2021/07/01 02:18:00;;;;;;;14.25;10.95;;;;;;;20.05;76.24;98785.78;1715876;83;21019;-63
2021/07/01 02:20:27;;;;;;;11.75;9.98;;;;;;;20.03;76.34;98797.17;1717896;82;21008;-63
2021/07/01 02:22:54;;;;;;;12.30;10.55;;;;;;;20.01;76.47;98803.64;1707740;83;21491;-63
2021/07/01 02:25:23;;;;;;;12.28;10.98;;;;;;;20.02;76.47;98809.95;1697836;83;20948;-63
2021/07/01 02:27:51;;;;;;;13.98;10.95;;;;;;;19.96;76.69;98808.61;1716845;81;21076;-63
2021/07/01 02:30:19;;;;;;;12.45;11.10;;;;;;;19.94;76.86;98810.37;1706017;83;20917;-63
2021/07/01 02:32:46;;;;;;;12.88;11.43;;;;;;;19.97;76.93;98833.13;1701019;83;21019;-63
2021/07/01 02:35:13;;;;;;;16.15;11.43;;;;;;;19.98;76.93;98844.98;1715973;83;21003;-62
2021/07/01 02:37:44;;;;;;;12.37;11.08;;;;;;;19.98;77.06;98844.98;1732357;82;21123;-62
2021/07/01 02:40:15;;;;;;;13.35;11.35;;;;;;;20.00;77.16;98846.80;1720984;81;21067;-61
2021/07/01 02:42:58;;;;;;;15.80;12.18;;;;;;;20.04;77.20;98851.27;1712257;81;21109;-62
2021/07/01 02:45:25;;;;;;;13.78;11.57;;;;;;;20.09;77.30;98848.23;1688657;83;21214;-61
2021/07/01 02:47:53;;;;;;;13.08;11.68;;;;;;;20.06;77.23;98837.89;1710620;83;21375;-63
2021/07/01 02:51:06;;;;;;;16.65;12.60;;;;;;;20.00;77.42;98839.32;1819084;79;22519;-64
2021/07/01 02:53:34;;;;;;;13.22;11.83;;;;;;;19.99;77.65;98843.81;1777764;80;21016;-64
2021/07/01 02:56:01;;;;;;;13.28;11.80;;;;;;;20.05;77.67;98854.84;1773594;80;21573;-64
2021/07/01 02:58:27;;;;;;;16.32;12.20;;;;;;;20.10;77.79;98866.99;1774234;80;21060;-64
2021/07/01 03:00:56;;;;;;;12.30;11.00;;;;;;;20.23;77.84;98880.94;1773375;80;21081;-63
2021/07/01 03:03:23;;;;;;;14.50;12.75;;;;;;;20.33;77.85;98893.68;1764179;80;21089;-63
2021/07/01 03:05:51;;;;;;;15.50;12.43;;;;;;;20.39;77.93;98901.14;1775379;80;20995;-64
2021/07/01 03:08:18;;;;;;;15.15;12.50;;;;;;;20.44;77.97;98904.23;1764511;80;21054;-62
2021/07/01 03:10:47;;;;;;;15.00;12.50;;;;;;;20.53;77.96;98904.27;1755614;80;21055;-62
2021/07/01 03:13:15;;;;;;;13.72;12.20;;;;;;;20.67;78.07;98905.99;1756665;80;21082;-61
2021/07/01 03:15:43;;;;;;;14.15;12.58;;;;;;;20.89;78.08;98908.69;1777046;80;21090;-62
2021/07/01 03:18:11;;;;;;;15.03;13.30;;;;;;;21.09;77.52;98909.52;1756585;80;21483;-62
2021/07/01 03:20:39;;;;;;;16.00;12.90;;;;;;;21.14;76.90;98918.97;1777995;80;21538;-62
2021/07/01 03:23:24;;;;;;;13.83;11.85;;;;;;;21.18;76.51;98930.35;1758020;80;21015;-62
2021/07/01 03:25:52;;;;;;;16.80;11.53;;;;;;;21.23;76.16;98930.05;1761660;79;20991;-64
2021/07/01 03:28:19;;;;;;;15.95;11.65;;;;;;;21.24;75.85;98931.66;1729884;80;21018;-62
2021/07/01 03:30:46;;;;;;;12.85;11.10;;;;;;;21.20;75.75;98932.74;1774839;80;21039;-62
2021/07/01 03:33:12;;;;;;;14.98;11.35;;;;;;;21.11;75.78;98935.73;1777485;80;21608;-62
2021/07/01 03:35:39;;;;;;;11.85;10.60;;;;;;;21.07;75.98;98936.19;1770995;80;21577;-62
2021/07/01 03:38:25;;;;;;;11.60;9.60;;;;;;;21.08;75.92;98941.92;1778197;80;21545;-63
2021/07/01 03:41:08;;;;;;;11.10;9.33;;;;;;;21.08;75.82;98944.69;1679960;84;21798;-62
2021/07/01 03:43:40;;;;;;;13.03;9.58;;;;;;;21.09;75.74;98946.88;1681994;84;21086;-62
2021/07/01 03:46:03;;;;;;;12.10;10.15;;;;;;;21.08;75.80;98942.53;1690672;83;21049;-62
2021/07/01 03:48:30;;;;;;;11.85;9.85;;;;;;;21.04;75.88;98946.59;1699343;83;22113;-62
2021/07/01 03:51:15;;;;;;;11.38;9.58;;;;;;;21.05;75.90;98941.84;1681908;84;21043;-63
2021/07/01 03:53:44;;;;;;;12.47;9.25;;;;;;;21.10;75.79;98951.27;1749398;81;21070;-63
2021/07/01 03:56:12;;;;;;;9.73;8.73;;;;;;;21.12;75.65;98949.77;1747386;81;21030;-63
2021/07/01 03:58:39;;;;;;;14.15;10.30;;;;;;;21.12;75.57;98953.11;1741797;81;21609;-63
2021/07/01 04:01:07;;;;;;;13.83;10.13;;;;;;;21.12;75.53;98955.30;1696616;81;21067;-63
2021/07/01 04:03:34;;;;;;;13.05;9.73;;;;;;;21.08;75.66;98950.23;1748914;81;21531;-63
2021/07/01 04:06:06;;;;;;;12.68;9.25;;;;;;;21.10;75.68;98954.03;1684468;83;21087;-63
2021/07/01 04:08:33;;;;;;;12.88;9.58;;;;;;;21.19;75.61;98949.92;1782244;79;21106;-63
2021/07/01 04:10:59;;;;;;;12.80;9.13;;;;;;;21.26;75.48;98944.55;1670071;85;21134;-62
2021/07/01 04:13:26;;;;;;;10.60;9.30;;;;;;;21.29;75.38;98943.05;1758708;81;21530;-63
2021/07/01 04:16:11;;;;;;;10.35;8.73;;;;;;;21.30;75.38;98944.63;1740349;81;20988;-62
2021/07/01 04:18:57;;;;;;;10.85;9.58;;;;;;;21.37;75.53;98927.37;1750159;81;21063;-63
2021/07/01 04:21:41;;;;;;;15.85;9.90;;;;;;;21.34;75.51;98932.48;1692122;83;21055;-61
2021/07/01 04:24:10;;;;;;;13.15;9.50;;;;;;;21.36;75.65;98936.86;1731422;81;21042;-61
2021/07/01 04:26:53;;;;;;;10.32;9.05;;;;;;;21.43;75.54;98941.98;1694461;84;21565;-64
2021/07/01 04:29:22;;;;;;;10.95;9.83;;;;;;;21.52;75.40;98948.67;1672723;84;21586;-63
2021/07/01 04:31:49;;;;;;;12.23;9.90;;;;;;;21.60;75.34;98955.39;1657507;85;21058;-64
2021/07/01 04:34:16;;;;;;;11.38;10.28;;;;;;;21.66;75.15;98950.36;1733180;81;20968;-64
2021/07/01 04:36:42;;;;;;;15.15;11.08;;;;;;;21.66;75.09;98949.78;1762593;81;21621;-63
2021/07/01 04:39:10;;;;;;;14.13;10.58;;;;;;;21.61;75.26;98956.20;1768140;81;21496;-64
2021/07/01 04:41:41;;;;;;;13.22;9.98;;;;;;;21.66;75.35;98958.66;1766788;81;21531;-64
2021/07/01 04:44:08;;;;;;;12.20;10.93;;;;;;;21.71;75.35;98960.58;1746591;81;21180;-65
2021/07/01 04:46:37;;;;;;;12.00;10.75;;;;;;;21.72;75.19;98953.86;1747895;81;21107;-63
2021/07/01 04:49:03;;;;;;;15.85;11.05;;;;;;;21.74;75.44;98961.23;1741820;81;21103;-62
2021/07/01 04:51:31;;;;;;;16.73;12.07;;;;;;;21.85;75.63;98957.30;1718817;82;21562;-62
2021/07/01 04:54:10;;;;;;;14.15;12.65;;;;;;;21.99;75.59;98952.65;1688823;85;21028;-63
2021/07/01 04:56:55;;;;;;;13.80;12.35;;;;;;;22.05;75.44;98954.75;1739728;81;21063;-62
2021/07/01 04:59:22;;;;;;;13.75;11.73;;;;;;;22.15;75.32;98965.24;1737874;82;21095;-62
2021/07/01 05:01:58;;;;;;;15.17;12.47;;;;;;;22.28;74.98;98956.97;1744355;81;21122;-62
2021/07/01 05:04:38;;;;;;;16.70;12.65;;;;;;;22.44;74.83;98951.91;1679248;81;21109;-62
2021/07/01 05:07:07;;;;;;;14.25;12.68;;;;;;;22.52;74.29;98949.48;1765124;81;21585;-62
2021/07/01 05:09:34;;;;;;;15.18;12.73;;;;;;;22.53;74.20;98959.41;1760437;81;21012;-62
2021/07/01 05:12:04;;;;;;;14.18;12.05;;;;;;;22.59;74.04;98956.54;1748611;81;21107;-62
2021/07/01 05:14:32;;;;;;;12.88;11.57;;;;;;;22.67;73.81;98960.47;1721767;81;21036;-63
2021/07/01 05:16:59;;;;;;;12.60;11.40;;;;;;;22.81;73.87;98968.25;1739971;81;21130;-63
2021/07/01 05:19:26;;;;;;;12.88;11.55;;;;;;;22.96;73.63;98966.48;1763971;81;20980;-63
2021/07/01 05:21:57;;;;;;;13.95;11.90;;;;;;;23.06;73.27;98965.27;1749520;81;21051;-63
2021/07/01 05:24:42;;;;;;;15.15;11.22;;;;;;;23.16;73.15;98972.17;1752188;81;21177;-63
2021/07/01 05:27:26;;;;;;;13.88;11.40;;;;;;;23.31;72.62;98973.38;1744645;82;21546;-64
2021/07/01 05:30:01;;;;;;;12.82;11.35;;;;;;;23.48;72.22;98968.51;1726161;81;21038;-63
2021/07/01 05:32:46;;;;;;;12.93;11.43;;;;;;;23.60;71.31;98965.48;1743911;81;20992;-62
2021/07/01 05:35:17;;;;;;;14.85;11.90;;;;;;;23.65;71.00;98972.92;1759035;81;20996;-62
2021/07/01 05:37:45;;;;;;;13.58;11.70;;;;;;;23.72;70.99;98963.87;1754725;80;21118;-62
2021/07/01 05:40:15;;;;;;;12.43;11.22;;;;;;;23.85;70.24;98972.16;1744253;80;21378;-63
2021/07/01 05:42:40;;;;;;;11.83;10.68;;;;;;;23.96;69.92;98970.91;1722311;81;21075;-63
2021/07/01 05:45:08;;;;;;;13.55;11.90;;;;;;;24.12;70.09;98977.88;1755688;81;21027;-63
2021/07/01 05:47:36;;;;;;;15.23;12.03;;;;;;;24.25;69.19;98973.67;1742891;81;21071;-63
2021/07/01 05:50:05;;;;;;;16.60;11.68;;;;;;;24.32;68.64;98971.55;1739894;81;21083;-63
2021/07/01 05:52:34;;;;;;;13.70;10.88;;;;;;;24.35;68.40;98969.98;1755233;81;21074;-62
2021/07/01 05:55:00;;;;;;;13.83;11.95;;;;;;;24.42;68.10;98978.41;1765286;81;21550;-62
2021/07/01 05:57:30;;;;;;;14.35;11.03;;;;;;;24.44;67.96;98978.25;1719282;82;21594;-63
2021/07/01 05:59:56;;;;;;;12.75;10.90;;;;;;;24.43;67.62;98975.25;1753878;81;21086;-63
2021/07/01 06:02:24;;;;;;;12.90;10.95;;;;;;;24.48;67.26;98968.55;1736941;81;21450;-62
2021/07/01 06:04:51;;;;;;;14.63;10.35;;;;;;;24.75;67.51;98965.81;1696695;82;20972;-64
2021/07/01 06:07:24;;;;;;;13.10;11.05;;;;;;;24.90;67.62;98970.95;1749731;81;21032;-64
2021/07/01 06:09:53;;;;;;;14.30;10.65;;;;;;;24.90;67.62;98970.95;1765763;81;21614;-63
2021/07/01 06:12:22;;;;;;;11.93;10.28;;;;;;;25.24;66.18;98974.59;1767271;81;21027;-62
2021/07/01 06:14:57;;;;;;;12.53;9.70;;;;;;;25.24;66.18;98974.59;1750815;81;20987;-62
2021/07/01 06:17:26;;;;;;;10.95;9.80;;;;;;;25.47;66.75;98988.88;1679220;84;21075;-62
2021/07/01 06:19:53;;;;;;;10.82;9.55;;;;;;;25.64;65.87;98981.23;1731078;80;21008;-62
2021/07/01 06:22:23;;;;;;;11.50;10.13;;;;;;;25.68;64.54;98986.23;1717561;82;21065;-63
2021/07/01 06:24:54;;;;;;;11.85;10.50;;;;;;;25.65;64.47;98979.43;1714797;83;21037;-63
2021/07/01 06:27:25;;;;;;;13.65;10.23;;;;;;;25.72;64.13;98975.88;1715784;83;21077;-64
2021/07/01 06:29:48;;;;;;;13.75;10.10;;;;;;;25.82;63.83;98977.14;1692423;82;21511;-64
2021/07/01 06:32:15;;;;;;;12.70;10.53;;;;;;;25.89;63.38;98975.77;1694070;83;21544;-64
2021/07/01 06:34:41;;;;;;;12.88;10.00;;;;;;;25.94;63.58;98984.55;1714661;83;21021;-63
2021/07/01 06:37:08;;;;;;;10.85;9.25;;;;;;;26.01;63.75;98988.77;1704816;83;21091;-63
2021/07/01 06:39:53;;;;;;;10.95;9.58;;;;;;;26.04;62.91;98990.77;1756551;81;20948;-62
2021/07/01 06:42:58;;;;;;;12.70;9.03;;;;;;;26.07;62.71;98988.61;1653167;85;21508;-62
2021/07/01 06:45:43;;;;;;;11.43;9.90;;;;;;;26.12;62.28;98986.81;1683212;84;21094;-62
2021/07/01 06:48:17;;;;;;;10.58;9.18;;;;;;;26.00;62.15;98982.20;1700611;80;21189;-63
2021/07/01 06:51:02;;;;;;;11.38;10.20;;;;;;;25.94;62.69;98980.37;1627480;85;21728;-62
2021/07/01 06:53:47;;;;;;;12.55;9.90;;;;;;;25.78;62.53;98979.91;1731765;82;21082;-62
2021/07/01 06:56:38;;;;;;;13.48;10.63;;;;;;;25.73;63.28;98966.33;1732050;81;21031;-63
2021/07/01 06:59:02;;;;;;;11.40;10.23;;;;;;;25.73;63.28;98966.33;1720387;81;21034;-63
2021/07/01 07:01:29;;;;;;;12.00;10.25;;;;;;;25.78;63.24;98971.55;1745984;81;21062;-60
2021/07/01 07:03:56;;;;;;;15.43;11.03;;;;;;;25.91;64.07;98966.41;1775740;81;21484;-62
2021/07/01 07:06:26;;;;;;;12.47;11.18;;;;;;;26.00;63.38;98968.26;1756875;81;21553;-62
2021/07/01 07:08:52;;;;;;;11.05;9.95;;;;;;;26.11;63.49;98965.69;1737151;81;20991;-64
2021/07/01 07:11:19;;;;;;;12.95;10.88;;;;;;;26.21;63.64;98967.77;1769869;81;21540;-63
2021/07/01 07:13:48;;;;;;;12.45;10.08;;;;;;;26.36;62.93;98962.22;1728617;81;20975;-63
2021/07/01 07:16:14;;;;;;;14.10;11.10;;;;;;;26.53;62.95;98953.88;1717133;82;21530;-63
2021/07/01 07:18:42;;;;;;;11.73;10.53;;;;;;;26.80;62.20;98955.68;1715635;83;21075;-63
2021/07/01 07:21:14;;;;;;;13.83;10.45;;;;;;;27.07;61.50;98945.72;1716007;83;21616;-64
2021/07/01 07:23:39;;;;;;;10.72;9.58;;;;;;;27.29;60.76;98949.28;1722280;82;21026;-64
2021/07/01 07:26:17;;;;;;;13.08;8.58;;;;;;;27.46;59.95;98946.28;1736973;82;21635;-64
2021/07/01 07:28:50;;;;;;;8.80;7.90;;;;;;;27.63;59.69;98949.02;1726666;81;21050;-64
2021/07/01 07:31:23;;;;;;;9.45;7.22;;;;;;;27.88;58.09;98934.17;1743680;82;21012;-64
2021/07/01 07:33:48;;;;;;;12.73;8.05;;;;;;;28.12;56.85;98942.47;1744267;82;21066;-65
2021/07/01 07:36:17;;;;;;;8.60;6.78;;;;;;;28.18;56.33;98933.03;1716052;83;21553;-65
2021/07/01 07:38:45;;;;;;;8.78;6.87;;;;;;;28.33;55.95;98942.14;1668285;83;20975;-65
2021/07/01 07:41:14;;;;;;;7.22;6.00;;;;;;;28.52;54.73;98931.83;1716198;83;20987;-64
2021/07/01 07:43:41;;;;;;;8.50;5.45;;;;;;;28.77;53.96;98935.24;1690986;83;21518;-65
2021/07/01 07:46:08;;;;;;;11.50;5.85;;;;;;;28.98;53.01;98928.69;1740214;82;21031;-65
2021/07/01 07:48:34;;;;;;;7.17;5.40;;;;;;;29.14;50.85;98918.52;1727758;82;21576;-68
2021/07/01 07:54:52;;;;;;;;;;;;;;;29.52;48.74;98912.92;1808286;79;22506;-62
2021/07/01 07:57:19;;;;;;;8.28;5.05;;;;;;;29.41;48.16;98906.03;1763806;80;20393;-64
2021/07/01 07:59:50;;;;;;;7.85;4.47;;;;;;;29.29;49.50;98907.19;1746071;82;21030;-64
2021/07/01 08:02:48;;;;;;;7.83;5.28;;;;;;;29.37;49.39;98911.52;1746442;81;21125;-63
2021/07/01 08:05:22;;;;;;;7.58;4.90;;;;;;;29.60;48.92;98917.24;1733195;82;21059;-65
2021/07/01 08:07:50;;;;;;;6.97;4.80;;;;;;;29.76;48.33;98917.43;1731193;83;21090;-66
2021/07/01 08:10:21;;;;;;;7.58;4.25;;;;;;;29.86;49.41;98920.77;1712679;83;21043;-65
2021/07/01 08:12:52;;;;;;;5.72;3.80;;;;;;;29.94;46.78;98920.84;1720860;83;21065;-62
2021/07/01 08:15:20;;;;;;;7.87;4.05;;;;;;;29.57;47.22;98923.69;1700704;84;21494;-64
2021/07/01 08:17:49;;;;;;;6.33;3.33;;;;;;;29.45;47.41;98915.20;1700654;84;21153;-65
2021/07/01 08:20:17;;;;;;;11.18;3.77;;;;;;;29.56;46.41;98913.67;1700458;84;21043;-65
2021/07/01 08:22:47;;;;;;;5.22;3.80;;;;;;;29.74;47.10;98917.67;1701152;83;21019;-64
2021/07/01 08:25:15;;;;;;;6.62;3.47;;;;;;;29.92;45.28;98913.46;1701848;84;21156;-64
2021/07/01 08:27:42;;;;;;;7.28;4.15;;;;;;;30.02;45.75;98905.50;1665002;85;21146;-65
2021/07/01 08:30:10;;;;;;;6.42;3.70;;;;;;;30.11;46.35;98914.82;1690172;85;21027;-64
2021/07/01 08:32:37;;;;;;;8.15;3.75;;;;;;;30.22;46.85;98911.86;1651014;86;21050;-65
2021/07/01 08:35:05;;;;;;;4.70;2.92;;;;;;;30.43;46.03;98911.58;1685799;85;21076;-64
2021/07/01 08:37:31;;;;;;;6.80;3.55;;;;;;;30.64;44.85;98910.44;1718373;83;21010;-65
2021/07/01 08:40:02;;;;;;;6.35;3.95;;;;;;;30.79;43.58;98915.38;1698964;84;21006;-65
2021/07/01 08:42:34;;;;;;;8.18;3.92;;;;;;;30.70;44.68;98922.17;1698461;83;21029;-64
2021/07/01 08:45:07;;;;;;;6.25;3.40;;;;;;;30.44;44.31;98920.16;1699291;83;20966;-64
2021/07/01 08:47:37;;;;;;;7.20;3.87;;;;;;;30.18;45.93;98915.33;1698881;84;21038;-64
2021/07/01 08:50:05;;;;;;;8.05;3.98;;;;;;;30.15;46.69;98921.79;1699095;84;21477;-65
2021/07/01 08:52:33;;;;;;;7.53;3.72;;;;;;;30.15;45.99;98926.77;1671796;83;21057;-64
2021/07/01 08:55:03;;;;;;;5.65;3.33;;;;;;;30.24;45.66;98917.23;1642686;87;21061;-64
2021/07/01 08:57:35;;;;;;;5.10;3.50;;;;;;;30.08;45.85;98924.86;1688226;85;21059;-64
2021/07/01 09:00:14;;;;;;;7.45;3.50;;;;;;;29.82;46.67;98921.38;1688055;84;21134;-63
2021/07/01 09:02:43;;;;;;;6.22;3.60;;;;;;;29.88;46.24;98918.32;1690814;83;21067;-65
2021/07/01 09:05:13;;;;;;;7.17;3.45;;;;;;;30.12;45.95;98924.81;1706716;83;21039;-64
2021/07/01 09:07:40;;;;;;;5.80;3.47;;;;;;;30.27;45.31;98921.99;1692857;83;21075;-63
2021/07/01 09:10:10;;;;;;;6.47;3.10;;;;;;;30.33;46.18;98913.88;1687952;84;21075;-64
2021/07/01 09:12:41;;;;;;;6.70;3.85;;;;;;;30.54;46.67;98909.38;1688441;83;21642;-64
2021/07/01 09:15:10;;;;;;;6.92;3.47;;;;;;;30.77;45.98;98913.63;1700064;83;20984;-64
2021/07/01 09:17:38;;;;;;;5.95;3.35;;;;;;;30.78;44.28;98909.60;1718325;82;21079;-64
2021/07/01 09:20:07;;;;;;;8.38;3.47;;;;;;;30.51;44.73;98911.63;1718203;82;21589;-65
2021/07/01 09:22:34;;;;;;;7.50;3.58;;;;;;;30.29;44.65;98897.72;1717980;83;21019;-65
2021/07/01 09:25:03;;;;;;;5.75;3.33;;;;;;;30.23;45.54;98901.59;1717871;83;21554;-64
2021/07/01 09:27:29;;;;;;;5.55;3.33;;;;;;;30.37;45.86;98900.59;1717804;82;21091;-65
2021/07/01 09:29:57;;;;;;;7.08;3.70;;;;;;;30.47;46.16;98906.07;1684525;83;21062;-65
2021/07/01 09:32:26;;;;;;;5.58;2.90;;;;;;;30.61;46.86;98909.26;1729690;81;21577;-64
2021/07/01 09:34:52;;;;;;;7.47;3.33;;;;;;;30.78;45.64;98902.58;1710011;83;21039;-65
2021/07/01 09:37:19;;;;;;;6.67;3.45;;;;;;;30.85;44.06;98896.84;1717754;83;21071;-65
2021/07/01 09:39:47;;;;;;;7.40;3.85;;;;;;;30.96;44.33;98896.02;1676095;85;21020;-65
2021/07/01 09:42:14;;;;;;;7.78;4.03;;;;;;;30.97;43.33;98890.62;1687708;85;21119;-64
2021/07/01 09:44:41;;;;;;;5.83;3.50;;;;;;;30.96;42.89;98894.61;1687744;84;21090;-65
2021/07/01 09:47:10;;;;;;;5.22;3.40;;;;;;;30.97;44.53;98892.02;1687819;84;21119;-62
2021/07/01 09:49:42;;;;;;;6.50;3.22;;;;;;;31.08;44.26;98883.39;1690017;83;21071;-62
2021/07/01 09:52:14;;;;;;;9.58;3.75;;;;;;;31.17;45.28;98884.25;1718258;82;21028;-63
2021/07/01 09:54:43;;;;;;;5.85;3.30;;;;;;;31.17;44.26;98874.41;1717705;81;21060;-63
2021/07/01 09:57:19;;;;;;;7.95;3.58;;;;;;;31.12;43.31;98876.30;1707569;83;21038;-64
2021/07/01 09:59:56;;;;;;;6.72;3.95;;;;;;;31.13;44.07;98873.68;1696988;83;20976;-64
2021/07/01 10:02:23;;;;;;;6.12;3.10;;;;;;;31.25;45.24;98871.66;1677983;85;21095;-66
2021/07/01 10:04:50;;;;;;;6.33;3.12;;;;;;;31.37;44.70;98864.77;1697124;82;21019;-64
2021/07/01 10:07:21;;;;;;;6.35;3.47;;;;;;;31.49;44.23;98863.33;1692258;83;21082;-66
2021/07/01 10:09:54;;;;;;;5.10;3.25;;;;;;;31.60;44.94;98865.34;1726288;82;21018;-65
2021/07/01 10:12:24;;;;;;;5.40;3.10;;;;;;;31.71;44.31;98864.48;1699002;82;21146;-65
2021/07/01 10:14:55;;;;;;;9.55;3.45;;;;;;;31.74;43.34;98854.41;1705792;83;21063;-66
2021/07/01 10:17:24;;;;;;;7.50;3.27;;;;;;;31.75;44.31;98855.36;1716059;83;21107;-65
2021/07/01 10:20:09;;;;;;;5.55;3.52;;;;;;;31.80;41.64;98861.09;1700052;83;21118;-64
2021/07/01 10:22:40;;;;;;;6.53;3.10;;;;;;;31.75;42.84;98851.14;1650646;87;21135;-65
2021/07/01 10:25:08;;;;;;;6.90;3.33;;;;;;;31.85;43.38;98845.89;1665651;83;21506;-63
2021/07/01 10:27:40;;;;;;;6.05;3.30;;;;;;;31.95;42.89;98844.08;1704165;83;21538;-64
2021/07/01 10:30:21;;;;;;;8.58;4.28;;;;;;;31.88;42.84;98850.67;1688360;83;21570;-65
2021/07/01 10:32:49;;;;;;;8.65;3.10;;;;;;;31.86;43.35;98846.69;1681810;83;21033;-64
2021/07/01 10:35:38;;;;;;;6.00;3.37;;;;;;;31.82;42.67;98838.31;1715170;83;21023;-64
2021/07/01 10:38:12;;;;;;;5.60;3.55;;;;;;;31.69;43.74;98845.85;1713722;82;21075;-64
2021/07/01 10:40:48;;;;;;;7.87;4.03;;;;;;;31.65;45.61;98842.92;1685601;83;21074;-62
2021/07/01 10:43:17;;;;;;;7.08;3.62;;;;;;;31.73;42.67;98844.37;1716356;83;21047;-63
2021/07/01 10:45:58;;;;;;;6.90;3.40;;;;;;;31.60;43.66;98840.64;1716712;83;21487;-63
2021/07/01 10:48:26;;;;;;;6.45;3.30;;;;;;;31.59;44.45;98837.03;1714029;83;21694;-64
2021/07/01 10:50:54;;;;;;;5.08;3.20;;;;;;;31.62;43.35;98838.17;1715905;83;21067;-64
2021/07/01 10:53:34;;;;;;;4.83;3.10;;;;;;;31.54;43.29;98838.32;1732639;81;21086;-65
2021/07/01 10:56:05;;;;;;;6.62;3.55;;;;;;;31.32;43.15;98842.00;1732875;83;21063;-63
2021/07/01 10:58:31;;;;;;;6.58;3.62;;;;;;;31.03;44.03;98844.56;1733045;81;21022;-63
2021/07/01 11:01:00;;;;;;;5.87;3.10;;;;;;;30.71;45.35;98847.12;1733037;83;21015;-64
2021/07/01 11:03:30;;;;;;;5.70;3.15;;;;;;;30.56;45.10;98848.77;1733052;81;21644;-64
2021/07/01 11:05:59;;;;;;;7.37;3.10;;;;;;;30.57;44.84;98846.77;1722824;83;20940;-64
2021/07/01 11:08:32;;;;;;;8.23;3.40;;;;;;;30.60;44.44;98845.91;1717832;82;21543;-64
2021/07/01 11:11:04;;;;;;;5.30;2.67;;;;;;;30.61;44.91;98850.28;1714677;82;20988;-64
2021/07/01 11:13:33;;;;;;;5.30;2.65;;;;;;;30.64;45.35;98848.05;1707256;83;21083;-64
2021/07/01 11:16:09;;;;;;;5.53;3.02;;;;;;;30.66;44.92;98839.97;1712803;82;20974;-64
2021/07/01 11:18:38;;;;;;;8.10;2.12;;;;;;;30.73;45.45;98845.46;1716203;82;21052;-64
2021/07/01 11:21:09;;;;;;;4.92;2.30;;;;;;;30.80;43.91;98840.33;1711434;83;21510;-64
2021/07/01 11:23:36;;;;;;;5.35;2.27;;;;;;;30.79;44.33;98840.13;1713740;82;21028;-64
2021/07/01 11:26:23;;;;;;;5.03;2.55;;;;;;;30.88;42.75;98837.58;1698257;83;21028;-64
2021/07/01 11:28:51;;;;;;;5.37;2.42;;;;;;;30.96;42.84;98838.41;1723835;82;21058;-64
2021/07/01 11:31:17;;;;;;;5.50;1.95;;;;;;;31.11;43.51;98843.18;1711628;82;21577;-64
2021/07/01 11:33:51;;;;;;;4.00;1.98;;;;;;;31.27;43.91;98845.30;1695049;83;21074;-62
2021/07/01 11:36:19;;;;;;;5.55;2.30;;;;;;;31.35;43.03;98839.11;1683397;85;21093;-64
2021/07/01 11:38:47;;;;;;;6.03;2.20;;;;;;;31.42;42.05;98843.19;1717893;83;21091;-64
2021/07/01 11:41:15;;;;;;;5.72;2.75;;;;;;;31.51;44.17;98843.99;1717758;82;21051;-64
2021/07/01 11:43:43;;;;;;;7.62;2.85;;;;;;;31.57;43.42;98838.86;1718024;82;21015;-64
2021/07/01 11:46:09;;;;;;;6.10;2.62;;;;;;;31.54;42.87;98829.09;1711267;82;20992;-64